Time;durP1;ratioP1;P1;durP2;ratioP2;P2;SDS_P1;SDS_P2;PMS_P1;PMS_P2;Temp;Humidity;BMP_temperature;BMP_pressure;BME280_temperature;BME280_humidity;BME280_pressure;Samples;Min_cycle;Max_cycle;Signal;HPM_P1;HPM_P2
2022/01/29 00:00:34;;;;;;;;;;;7.10;99.90;;;;;;5075820;28;19967;-73
2022/01/29 00:03:00;;;;;;;;;;;7.10;99.90;;;;;;5076602;28;20274;-73
2022/01/29 00:05:26;;;;;;;;;;;7.10;99.90;;;;;;5076939;28;19917;-73
2022/01/29 00:07:51;;;;;;;;;;;7.10;99.90;;;;;;5076208;28;20005;-72
2022/01/29 00:10:17;;;;;;;;;;;7.10;99.90;;;;;;5075556;28;19974;-73
2022/01/29 00:12:43;;;;;;;;;;;7.10;99.90;;;;;;5076515;28;19913;-72
2022/01/29 00:15:09;;;;;;;;;;;7.00;99.90;;;;;;5076257;28;19978;-72
2022/01/29 00:17:34;;;;;;;;;;;7.00;99.90;;;;;;5075736;28;19923;-72
2022/01/29 00:20:00;;;;;;;;;;;7.00;99.90;;;;;;5070113;28;20295;-72
2022/01/29 00:22:26;;;;;;;;;;;7.00;99.90;;;;;;5068986;28;19916;-72
2022/01/29 00:24:51;;;;;;;;;;;6.90;99.90;;;;;;5072733;28;20307;-72
2022/01/29 00:27:19;;;;;;;;;;;6.90;99.90;;;;;;5066268;28;19923;-72
2022/01/29 00:29:45;;;;;;;;;;;6.90;99.90;;;;;;5070825;28;19912;-73
2022/01/29 00:32:11;;;;;;;;;;;6.90;99.90;;;;;;5075251;28;19920;-72
2022/01/29 00:34:37;;;;;;;;;;;7.00;99.90;;;;;;5074725;28;20251;-73
2022/01/29 00:37:03;;;;;;;;;;;6.90;99.90;;;;;;5075694;28;19917;-72
2022/01/29 00:39:28;;;;;;;;;;;6.90;99.90;;;;;;5072681;28;20012;-73
2022/01/29 00:41:54;;;;;;;;;;;6.90;99.90;;;;;;5059651;28;19919;-73
2022/01/29 00:44:20;;;;;;;;;;;6.90;99.90;;;;;;5057084;28;19913;-72
2022/01/29 00:46:45;;;;;;;;;;;6.90;99.90;;;;;;5060317;28;19913;-72
2022/01/29 00:49:11;;;;;;;;;;;6.90;99.90;;;;;;5056276;28;19917;-73
2022/01/29 00:51:37;;;;;;;;;;;6.90;99.90;;;;;;5059059;28;19917;-72
2022/01/29 00:54:03;;;;;;;;;;;7.00;99.90;;;;;;5057204;28;19970;-72
2022/01/29 00:56:28;;;;;;;;;;;7.00;99.90;;;;;;5060078;28;19928;-73
2022/01/29 00:58:54;;;;;;;;;;;7.00;99.90;;;;;;5056601;28;20304;-72
2022/01/29 01:01:20;;;;;;;;;;;7.00;99.90;;;;;;5038250;28;19961;-72
2022/01/29 01:03:45;;;;;;;;;;;7.00;99.90;;;;;;5063590;28;19920;-73
2022/01/29 01:06:11;;;;;;;;;;;7.00;99.90;;;;;;5060197;28;19920;-72
2022/01/29 01:08:36;;;;;;;;;;;7.00;99.90;;;;;;5056972;28;19917;-72
2022/01/29 01:11:04;;;;;;;;;;;7.00;99.90;;;;;;5060071;28;19918;-72
2022/01/29 01:13:30;;;;;;;;;;;7.00;99.90;;;;;;5054364;28;20315;-72
2022/01/29 01:15:55;;;;;;;;;;;7.10;99.90;;;;;;5061048;28;20330;-73
2022/01/29 01:18:21;;;;;;;;;;;7.10;99.90;;;;;;5041275;28;19913;-73
2022/01/29 01:20:46;;;;;;;;;;;7.10;99.90;;;;;;5056250;28;19924;-73
2022/01/29 01:23:12;;;;;;;;;;;7.10;99.90;;;;;;5059352;28;19979;-74
2022/01/29 01:25:38;;;;;;;;;;;7.10;99.90;;;;;;5043953;28;19917;-73
2022/01/29 01:28:04;;;;;;;;;;;7.20;99.90;;;;;;5062120;28;19970;-73
2022/01/29 01:30:29;;;;;;;;;;;7.20;99.90;;;;;;5062629;28;20006;-73
2022/01/29 01:32:55;;;;;;;;;;;7.30;99.90;;;;;;5054239;28;19966;-73
2022/01/29 01:35:31;;;;;;;;;;;7.20;99.90;;;;;;5037207;28;19921;-73
2022/01/29 01:38:07;;;;;;;;;;;7.30;99.90;;;;;;5055478;28;19928;-73
2022/01/29 01:40:32;;;;;;;;;;;7.30;99.90;;;;;;5069046;28;19927;-74
2022/01/29 01:43:00;;;;;;;;;;;7.30;99.90;;;;;;5074936;28;20335;-74
2022/01/29 01:45:27;;;;;;;;;;;7.30;99.90;;;;;;5074784;28;19948;-73
2022/01/29 01:47:53;;;;;;;;;;;7.30;99.90;;;;;;5074912;28;20219;-73
2022/01/29 01:50:20;;;;;;;;;;;7.30;99.90;;;;;;5073985;28;19935;-73
2022/01/29 01:52:45;;;;;;;;;;;7.30;99.90;;;;;;5073465;28;19917;-74
2022/01/29 01:55:12;;;;;;;;;;;7.30;99.90;;;;;;5074669;28;19920;-73
2022/01/29 01:57:38;;;;;;;;;;;7.30;99.90;;;;;;5074882;28;19919;-74
2022/01/29 02:00:03;;;;;;;;;;;7.30;99.90;;;;;;5073862;28;20011;-73
2022/01/29 02:02:29;;;;;;;;;;;7.40;99.90;;;;;;5074610;28;19952;-73
2022/01/29 02:04:55;;;;;;;;;;;7.40;99.90;;;;;;5074668;28;19948;-74
2022/01/29 02:07:20;;;;;;;;;;;7.40;99.90;;;;;;5074429;28;19974;-73
2022/01/29 02:09:46;;;;;;;;;;;7.40;99.90;;;;;;5075014;28;19916;-74
2022/01/29 02:12:12;;;;;;;;;;;7.40;99.90;;;;;;5074658;28;19927;-74
2022/01/29 02:14:39;;;;;;;;;;;7.40;99.90;;;;;;5074635;28;20011;-73
2022/01/29 02:17:05;;;;;;;;;;;7.40;99.90;;;;;;5074123;28;19924;-74
2022/01/29 02:19:31;;;;;;;;;;;7.40;99.90;;;;;;5074673;28;19917;-74
2022/01/29 02:21:58;;;;;;;;;;;7.40;99.90;;;;;;5074448;28;19927;-74
2022/01/29 02:24:24;;;;;;;;;;;7.50;99.90;;;;;;5074383;28;19917;-74
2022/01/29 02:26:49;;;;;;;;;;;7.50;99.90;;;;;;5074988;28;20231;-74
2022/01/29 02:29:15;;;;;;;;;;;7.60;99.90;;;;;;5074363;28;19916;-74
2022/01/29 02:31:48;;;;;;;;;;;7.60;99.90;;;;;;5072145;28;19912;-75
2022/01/29 02:34:14;;;;;;;;;;;7.60;99.90;;;;;;5074200;28;20493;-74
2022/01/29 02:36:42;;;;;;;;;;;7.60;99.90;;;;;;5074489;28;19917;-74
2022/01/29 02:39:08;;;;;;;;;;;7.60;99.90;;;;;;5074109;28;19913;-75
2022/01/29 02:41:34;;;;;;;;;;;7.60;99.90;;;;;;5073810;28;20358;-74
2022/01/29 02:44:04;;;;;;;;;;;7.70;99.90;;;;;;5074581;28;19921;-74
2022/01/29 02:46:41;;;;;;;;;;;7.70;99.90;;;;;;5073886;28;19916;-74
2022/01/29 02:49:07;;;;;;;;;;;7.70;99.90;;;;;;5073412;28;19923;-74
2022/01/29 02:51:33;;;;;;;;;;;7.70;99.90;;;;;;5074014;28;19908;-73
2022/01/29 02:53:58;;;;;;;;;;;7.70;99.90;;;;;;5074634;28;20373;-74
2022/01/29 02:56:24;;;;;;;;;;;7.70;99.90;;;;;;5072823;28;19908;-74
2022/01/29 02:58:51;;;;;;;;;;;7.80;99.90;;;;;;5073882;28;20315;-73
2022/01/29 03:01:18;;;;;;;;;;;7.70;99.90;;;;;;5073694;28;19912;-74
2022/01/29 03:03:43;;;;;;;;;;;7.80;99.90;;;;;;5073977;28;19920;-74
2022/01/29 03:06:10;;;;;;;;;;;7.80;99.90;;;;;;5072734;28;20007;-74
2022/01/29 03:08:37;;;;;;;;;;;7.80;99.90;;;;;;5073898;28;19921;-74
2022/01/29 03:11:02;;;;;;;;;;;7.90;99.90;;;;;;5073960;28;20223;-74
2022/01/29 03:13:28;;;;;;;;;;;7.90;99.90;;;;;;5073824;28;19909;-74
2022/01/29 03:15:54;;;;;;;;;;;7.90;99.90;;;;;;5073860;28;19917;-74
2022/01/29 03:18:19;;;;;;;;;;;7.90;99.90;;;;;;5074033;28;19921;-75
2022/01/29 03:20:45;;;;;;;;;;;7.90;99.90;;;;;;5071152;28;19923;-75
2022/01/29 03:23:10;;;;;;;;;;;8.00;99.90;;;;;;5074358;28;19995;-74
2022/01/29 03:25:36;;;;;;;;;;;8.00;99.90;;;;;;5073550;28;19956;-74
2022/01/29 03:28:01;;;;;;;;;;;8.00;99.90;;;;;;5074178;28;20296;-74
2022/01/29 03:30:27;;;;;;;;;;;8.00;99.90;;;;;;5072691;28;19915;-75
2022/01/29 03:32:52;;;;;;;;;;;8.00;99.90;;;;;;5072337;28;20456;-74
2022/01/29 03:35:19;;;;;;;;;;;8.10;99.90;;;;;;5076604;28;19962;-75
2022/01/29 03:37:44;;;;;;;;;;;8.10;99.90;;;;;;5074217;28;20015;-75
2022/01/29 03:40:10;;;;;;;;;;;8.10;99.90;;;;;;5076140;28;20007;-74
2022/01/29 03:42:44;;;;;;;;;;;8.10;99.90;;;;;;5077168;28;19924;-75
2022/01/29 03:45:10;;;;;;;;;;;8.20;99.90;;;;;;5077103;28;20278;-75
2022/01/29 03:47:36;;;;;;;;;;;8.20;99.90;;;;;;5076897;28;20383;-75
2022/01/29 03:50:03;;;;;;;;;;;8.20;99.90;;;;;;5077020;28;19913;-75
2022/01/29 03:52:28;;;;;;;;;;;8.20;99.90;;;;;;5076963;28;19916;-74
2022/01/29 03:54:54;;;;;;;;;;;8.20;99.90;;;;;;5077026;28;19923;-75
2022/01/29 03:57:19;;;;;;;;;;;8.20;99.90;;;;;;5076732;28;19912;-75
2022/01/29 03:59:45;;;;;;;;;;;8.20;99.90;;;;;;5074697;28;19999;-74
2022/01/29 04:02:10;;;;;;;;;;;8.10;99.90;;;;;;5077299;28;19913;-74
2022/01/29 04:04:36;;;;;;;;;;;8.20;99.90;;;;;;5077038;28;20311;-74
2022/01/29 04:07:08;;;;;;;;;;;8.20;99.90;;;;;;5075093;28;19944;-75
2022/01/29 04:09:34;;;;;;;;;;;8.20;99.90;;;;;;5075628;28;19925;-75
2022/01/29 04:12:00;;;;;;;;;;;8.20;99.90;;;;;;5076159;28;19925;-74
2022/01/29 04:14:32;;;;;;;;;;;8.20;99.90;;;;;;5076596;28;19919;-74
2022/01/29 04:16:57;;;;;;;;;;;8.20;99.90;;;;;;5076472;28;19952;-73
2022/01/29 04:19:23;;;;;;;;;;;8.20;99.90;;;;;;5076701;28;19963;-75
2022/01/29 04:21:48;;;;;;;;;;;8.20;99.90;;;;;;5076316;28;20021;-75
2022/01/29 04:24:14;;;;;;;;;;;8.30;99.90;;;;;;5076498;28;19916;-75
2022/01/29 04:26:39;;;;;;;;;;;8.30;99.90;;;;;;5076394;28;19943;-74
2022/01/29 04:29:07;;;;;;;;;;;8.30;99.90;;;;;;5076161;28;19970;-75
2022/01/29 04:31:55;;;;;;;;;;;8.30;99.90;;;;;;5071283;28;19924;-75
2022/01/29 04:34:21;;;;;;;;;;;8.30;99.90;;;;;;5073906;28;19916;-74
2022/01/29 04:36:47;;;;;;;;;;;8.40;99.90;;;;;;5074977;28;19966;-74
2022/01/29 04:39:12;;;;;;;;;;;8.40;99.90;;;;;;5074780;28;19928;-73
2022/01/29 04:41:38;;;;;;;;;;;8.50;99.90;;;;;;5058484;28;19916;-75
2022/01/29 04:44:04;;;;;;;;;;;8.40;99.90;;;;;;5075842;28;19920;-75
2022/01/29 04:46:29;;;;;;;;;;;8.40;99.90;;;;;;5075442;28;19916;-74
2022/01/29 04:48:55;;;;;;;;;;;8.50;99.90;;;;;;5076036;28;20269;-74
2022/01/29 04:51:21;;;;;;;;;;;8.50;99.90;;;;;;5075653;28;20003;-75
2022/01/29 04:53:47;;;;;;;;;;;8.50;99.90;;;;;;5074465;28;19912;-74
2022/01/29 04:56:12;;;;;;;;;;;8.50;99.90;;;;;;5073969;28;20665;-74
2022/01/29 04:58:38;;;;;;;;;;;8.50;99.90;;;;;;5073339;28;19920;-75
2022/01/29 05:01:04;;;;;;;;;;;8.50;99.90;;;;;;5074314;28;19923;-74
2022/01/29 05:03:29;;;;;;;;;;;8.50;99.90;;;;;;5073550;28;19917;-75
2022/01/29 05:05:55;;;;;;;;;;;8.50;99.90;;;;;;5071189;28;19920;-75
2022/01/29 05:08:21;;;;;;;;;;;8.50;99.90;;;;;;5073689;28;20304;-73
2022/01/29 05:10:47;;;;;;;;;;;8.50;99.90;;;;;;5073151;28;19938;-74
2022/01/29 05:13:14;;;;;;;;;;;8.50;99.90;;;;;;5057090;28;19912;-74
2022/01/29 05:29:03;;;;;;;;;;;8.50;99.90;;;;;;5068273;28;19936;-75
2022/01/29 05:31:29;;;;;;;;;;;8.50;99.90;;;;;;5074391;28;19921;-75
2022/01/29 05:33:54;;;;;;;;;;;8.50;99.90;;;;;;5073597;28;19923;-75
2022/01/29 05:36:20;;;;;;;;;;;8.40;99.90;;;;;;5073949;28;19974;-75
2022/01/29 05:38:45;;;;;;;;;;;8.30;99.90;;;;;;5072963;28;20307;-74
2022/01/29 05:41:11;;;;;;;;;;;8.30;99.90;;;;;;5073652;28;20245;-75
2022/01/29 05:43:37;;;;;;;;;;;8.30;99.90;;;;;;5073132;28;19912;-74
2022/01/29 05:46:02;;;;;;;;;;;8.30;99.90;;;;;;5070748;28;19916;-75
2022/01/29 05:48:28;;;;;;;;;;;8.20;99.90;;;;;;5074732;28;20219;-75
2022/01/29 05:50:55;;;;;;;;;;;8.20;99.90;;;;;;5073659;28;19967;-74
2022/01/29 05:53:21;;;;;;;;;;;8.30;99.90;;;;;;5074504;28;19978;-75
2022/01/29 05:55:46;;;;;;;;;;;8.30;99.90;;;;;;5074388;28;20311;-74
2022/01/29 05:58:12;;;;;;;;;;;8.30;99.90;;;;;;5073541;28;19920;-74
2022/01/29 06:00:37;;;;;;;;;;;8.20;99.90;;;;;;5073214;28;19921;-75
2022/01/29 06:03:03;;;;;;;;;;;8.30;99.90;;;;;;5074749;28;19999;-75
2022/01/29 06:05:28;;;;;;;;;;;8.30;99.90;;;;;;5074576;28;19916;-74
2022/01/29 06:07:54;;;;;;;;;;;8.30;99.90;;;;;;5073412;28;19920;-75
2022/01/29 06:10:20;;;;;;;;;;;8.30;99.90;;;;;;5074420;28;19991;-75
2022/01/29 06:12:55;;;;;;;;;;;8.30;99.90;;;;;;5074173;28;19920;-75
2022/01/29 06:15:21;;;;;;;;;;;8.30;99.90;;;;;;5071571;28;19918;-75
2022/01/29 06:17:46;;;;;;;;;;;8.30;99.90;;;;;;5074189;28;20358;-74
2022/01/29 06:20:12;;;;;;;;;;;8.30;99.90;;;;;;5073982;28;19916;-76
2022/01/29 06:22:40;;;;;;;;;;;8.30;99.90;;;;;;5087020;28;19913;-75
2022/01/29 06:25:06;;;;;;;;;;;8.30;99.90;;;;;;5071663;28;19924;-75
2022/01/29 06:27:31;;;;;;;;;;;8.30;99.90;;;;;;5072148;28;19916;-75
2022/01/29 06:29:57;;;;;;;;;;;8.30;99.90;;;;;;5070334;28;19936;-75
2022/01/29 06:32:23;;;;;;;;;;;8.40;99.90;;;;;;5073842;28;19955;-75
2022/01/29 06:34:48;;;;;;;;;;;8.40;99.90;;;;;;5071609;28;20231;-75
2022/01/29 06:37:14;;;;;;;;;;;8.40;99.90;;;;;;5071722;28;19916;-75
2022/01/29 06:39:39;;;;;;;;;;;8.30;99.90;;;;;;5070981;28;19925;-75
2022/01/29 06:42:05;;;;;;;;;;;8.40;99.90;;;;;;5068778;28;19921;-74
2022/01/29 06:44:30;;;;;;;;;;;8.40;99.90;;;;;;5071101;28;19923;-75
2022/01/29 06:46:56;;;;;;;;;;;8.40;99.90;;;;;;5071821;28;19916;-74
2022/01/29 06:49:21;;;;;;;;;;;8.40;99.90;;;;;;5073211;28;19916;-75
2022/01/29 06:51:47;;;;;;;;;;;8.40;99.90;;;;;;5072975;28;20284;-74
2022/01/29 06:54:12;;;;;;;;;;;8.50;99.90;;;;;;5072908;28;19920;-74
2022/01/29 06:56:38;;;;;;;;;;;8.50;99.90;;;;;;5073361;28;20334;-75
2022/01/29 06:59:04;;;;;;;;;;;8.50;99.90;;;;;;5072229;28;19922;-74
2022/01/29 07:01:29;;;;;;;;;;;8.60;99.90;;;;;;5073077;28;19913;-75
2022/01/29 07:03:55;;;;;;;;;;;8.60;99.90;;;;;;5072423;28;20038;-76
2022/01/29 07:06:20;;;;;;;;;;;8.60;99.90;;;;;;5072897;28;19948;-75
2022/01/29 07:08:46;;;;;;;;;;;8.50;99.90;;;;;;5074554;28;19921;-75
2022/01/29 07:11:11;;;;;;;;;;;8.60;99.90;;;;;;5076929;28;19916;-74
2022/01/29 07:13:37;;;;;;;;;;;8.60;99.90;;;;;;5076709;28;20003;-75
2022/01/29 07:16:03;;;;;;;;;;;8.60;99.90;;;;;;5075190;28;19912;-75
2022/01/29 07:18:28;;;;;;;;;;;8.60;99.90;;;;;;5091351;28;19912;-75
2022/01/29 07:20:54;;;;;;;;;;;8.70;99.90;;;;;;5075767;28;20016;-75
2022/01/29 07:23:19;;;;;;;;;;;8.70;99.90;;;;;;5076853;28;20378;-75
2022/01/29 07:25:45;;;;;;;;;;;8.70;99.90;;;;;;5076797;28;19943;-74
2022/01/29 07:28:10;;;;;;;;;;;8.70;99.90;;;;;;5076192;28;20003;-75
2022/01/29 07:30:36;;;;;;;;;;;8.70;99.90;;;;;;5073384;28;20274;-74
2022/01/29 07:33:01;;;;;;;;;;;8.70;99.90;;;;;;5074076;28;19922;-75
2022/01/29 07:35:27;;;;;;;;;;;8.70;99.90;;;;;;5073015;28;19916;-75
2022/01/29 07:37:52;;;;;;;;;;;8.70;99.90;;;;;;5076160;28;19916;-75
2022/01/29 07:40:18;;;;;;;;;;;8.70;99.90;;;;;;5073896;28;20022;-75
2022/01/29 07:42:43;;;;;;;;;;;8.70;99.90;;;;;;5071250;28;19916;-74
2022/01/29 07:45:09;;;;;;;;;;;8.70;99.90;;;;;;5074774;28;19920;-75
2022/01/29 07:47:36;;;;;;;;;;;8.70;99.90;;;;;;5075126;28;19917;-75
2022/01/29 07:50:02;;;;;;;;;;;8.70;99.90;;;;;;5075255;28;19912;-74
2022/01/29 07:52:27;;;;;;;;;;;8.70;99.90;;;;;;5076365;28;19969;-74
2022/01/29 07:54:53;;;;;;;;;;;8.70;99.90;;;;;;5075920;28;19920;-75
2022/01/29 07:57:19;;;;;;;;;;;8.70;99.90;;;;;;5088925;28;21335;-75
2022/01/29 07:59:44;;;;;;;;;;;8.60;99.90;;;;;;5077583;28;19913;-75
2022/01/29 08:02:10;;;;;;;;;;;8.60;99.90;;;;;;5075053;28;19912;-74
2022/01/29 08:04:36;;;;;;;;;;;8.60;99.90;;;;;;5072110;28;19919;-74
2022/01/29 08:07:02;;;;;;;;;;;8.70;99.90;;;;;;5075554;28;19916;-75
2022/01/29 08:09:28;;;;;;;;;;;8.70;99.90;;;;;;5076083;28;19927;-74
2022/01/29 08:11:53;;;;;;;;;;;8.70;99.90;;;;;;5065914;28;20328;-75
2022/01/29 08:14:19;;;;;;;;;;;8.70;99.90;;;;;;5072769;28;20362;-75
2022/01/29 08:16:44;;;;;;;;;;;8.70;99.90;;;;;;5065405;28;19948;-75
2022/01/29 08:19:10;;;;;;;;;;;8.70;99.90;;;;;;5068859;28;19955;-74
2022/01/29 08:21:38;;;;;;;;;;;8.80;99.90;;;;;;5074818;28;19912;-75
2022/01/29 08:24:05;;;;;;;;;;;8.80;99.90;;;;;;5075064;28;19920;-75
2022/01/29 08:26:31;;;;;;;;;;;8.80;99.90;;;;;;5067495;28;19913;-74
2022/01/29 08:28:56;;;;;;;;;;;8.90;99.90;;;;;;5078798;28;20661;-74
2022/01/29 08:31:22;;;;;;;;;;;9.00;99.90;;;;;;5062318;28;20011;-75
2022/01/29 08:33:47;;;;;;;;;;;9.00;99.90;;;;;;5063228;28;19913;-75
2022/01/29 08:36:13;;;;;;;;;;;8.90;99.90;;;;;;5062616;28;20397;-75
2022/01/29 08:38:39;;;;;;;;;;;9.00;99.90;;;;;;5065847;28;20337;-75
2022/01/29 08:41:04;;;;;;;;;;;9.00;99.90;;;;;;5064953;28;20227;-76
2022/01/29 08:43:32;;;;;;;;;;;9.00;99.90;;;;;;5067798;28;19977;-75
2022/01/29 08:45:58;;;;;;;;;;;9.00;99.90;;;;;;5074851;28;19982;-75
2022/01/29 08:48:24;;;;;;;;;;;9.00;99.90;;;;;;5075670;28;20038;-75
2022/01/29 08:50:50;;;;;;;;;;;9.10;99.90;;;;;;5067415;28;20367;-75
2022/01/29 08:53:16;;;;;;;;;;;9.20;99.90;;;;;;5073429;28;19912;-74
2022/01/29 08:55:42;;;;;;;;;;;9.10;99.90;;;;;;5075534;28;19920;-74
2022/01/29 08:58:08;;;;;;;;;;;9.20;99.90;;;;;;5076344;28;19917;-76
2022/01/29 09:00:35;;;;;;;;;;;9.20;99.90;;;;;;5075985;28;19917;-76
2022/01/29 09:03:00;;;;;;;;;;;9.20;99.90;;;;;;5076149;28;19997;-75
2022/01/29 09:05:26;;;;;;;;;;;9.30;99.90;;;;;;5075770;28;19974;-75
2022/01/29 09:07:51;;;;;;;;;;;9.30;99.90;;;;;;5074729;28;19917;-74
2022/01/29 09:10:17;;;;;;;;;;;9.30;99.90;;;;;;5075592;28;19912;-75
2022/01/29 09:12:43;;;;;;;;;;;9.40;99.90;;;;;;5067410;28;19919;-75
2022/01/29 09:15:08;;;;;;;;;;;9.40;99.90;;;;;;5073766;28;19959;-75
2022/01/29 09:17:35;;;;;;;;;;;9.50;99.90;;;;;;5075753;28;19913;-74
2022/01/29 09:20:01;;;;;;;;;;;9.50;99.90;;;;;;5075780;28;19965;-73
2022/01/29 09:22:27;;;;;;;;;;;9.60;99.90;;;;;;5074353;28;19913;-74
2022/01/29 09:24:52;;;;;;;;;;;9.60;99.90;;;;;;5074095;28;19920;-75
2022/01/29 09:27:18;;;;;;;;;;;9.70;99.90;;;;;;5073461;28;20007;-73
2022/01/29 09:29:44;;;;;;;;;;;9.80;99.90;;;;;;5070088;28;19912;-74
2022/01/29 09:32:09;;;;;;;;;;;9.80;99.90;;;;;;5073148;28;19940;-73
2022/01/29 09:34:35;;;;;;;;;;;9.80;99.90;;;;;;5073185;28;20330;-72
2022/01/29 09:37:00;;;;;;;;;;;9.80;99.90;;;;;;5071705;28;20278;-74
2022/01/29 09:39:26;;;;;;;;;;;9.90;99.90;;;;;;5073668;28;19920;-78
2022/01/29 09:41:53;;;;;;;;;;;9.90;99.90;;;;;;5074417;28;19912;-73
2022/01/29 09:44:19;;;;;;;;;;;9.90;99.90;;;;;;5073603;28;19920;-73
2022/01/29 09:46:46;;;;;;;;;;;9.90;99.90;;;;;;5073134;28;19927;-72
2022/01/29 09:49:13;;;;;;;;;;;10.00;99.90;;;;;;5074004;28;19916;-72
2022/01/29 09:51:38;;;;;;;;;;;10.00;99.90;;;;;;5074358;28;20223;-74
2022/01/29 09:54:04;;;;;;;;;;;10.00;99.90;;;;;;5074383;28;19916;-74
2022/01/29 09:56:31;;;;;;;;;;;10.00;99.90;;;;;;5074649;28;19920;-73
2022/01/29 09:58:57;;;;;;;;;;;10.00;99.90;;;;;;5066214;28;20311;-75
2022/01/29 10:01:23;;;;;;;;;;;10.00;99.90;;;;;;5074769;28;19920;-74
2022/01/29 10:04:02;;;;;;;;;;;10.10;99.90;;;;;;5073498;28;20224;-73
2022/01/29 10:06:27;;;;;;;;;;;10.20;99.90;;;;;;5074736;28;19919;-75
2022/01/29 10:08:53;;;;;;;;;;;10.30;99.90;;;;;;5074729;28;19917;-76
2022/01/29 10:11:20;;;;;;;;;;;10.40;99.90;;;;;;5074561;28;20315;-75
2022/01/29 10:13:46;;;;;;;;;;;10.40;99.90;;;;;;5074613;28;19920;-75
2022/01/29 10:16:20;;;;;;;;;;;10.50;99.90;;;;;;5071523;28;19912;-76
2022/01/29 10:18:48;;;;;;;;;;;10.60;99.90;;;;;;5061157;28;20022;-75
2022/01/29 10:21:16;;;;;;;;;;;10.60;99.90;;;;;;5073456;28;19941;-75
2022/01/29 10:23:43;;;;;;;;;;;10.70;99.90;;;;;;5072514;28;19920;-75
2022/01/29 10:26:10;;;;;;;;;;;10.70;99.90;;;;;;5064026;28;19916;-73
2022/01/29 10:28:36;;;;;;;;;;;10.80;99.90;;;;;;5072799;28;19923;-75
2022/01/29 10:31:06;;;;;;;;;;;10.80;99.90;;;;;;5070890;28;20231;-75
2022/01/29 10:33:32;;;;;;;;;;;10.90;99.90;;;;;;5081539;28;19916;-73
2022/01/29 10:36:00;;;;;;;;;;;11.00;99.90;;;;;;5080067;28;19920;-74
2022/01/29 10:38:27;;;;;;;;;;;11.10;99.90;;;;;;5072061;28;19919;-71
2022/01/29 10:41:09;;;;;;;;;;;11.10;99.90;;;;;;5064059;28;19921;-73
2022/01/29 10:43:35;;;;;;;;;;;11.20;99.90;;;;;;5069164;28;19980;-73
2022/01/29 10:46:01;;;;;;;;;;;11.30;99.90;;;;;;5072343;28;20223;-72
2022/01/29 10:48:43;;;;;;;;;;;11.30;99.90;;;;;;5077165;28;19920;-73
2022/01/29 10:51:12;;;;;;;;;;;11.30;99.90;;;;;;5075703;28;19963;-73
2022/01/29 10:53:39;;;;;;;;;;;11.20;99.90;;;;;;5078229;28;19986;-73
2022/01/29 10:56:04;;;;;;;;;;;11.10;99.90;;;;;;5078342;28;19913;-73
2022/01/29 10:58:38;;;;;;;;;;;11.00;99.90;;;;;;5070857;28;19913;-73
2022/01/29 11:01:10;;;;;;;;;;;11.00;99.90;;;;;;5078278;28;19923;-73
2022/01/29 11:03:36;;;;;;;;;;;11.10;99.90;;;;;;5069773;28;19912;-73
2022/01/29 11:06:01;;;;;;;;;;;11.00;99.90;;;;;;5075944;28;19966;-73
2022/01/29 11:08:27;;;;;;;;;;;11.00;99.90;;;;;;5076253;28;19927;-73
2022/01/29 11:10:53;;;;;;;;;;;11.10;99.90;;;;;;5078253;28;19916;-73
2022/01/29 11:13:19;;;;;;;;;;;11.10;99.90;;;;;;5076944;28;20218;-73
2022/01/29 11:15:45;;;;;;;;;;;11.20;99.90;;;;;;5076991;28;19912;-73
2022/01/29 11:18:10;;;;;;;;;;;11.50;99.90;;;;;;5077516;28;19913;-73
2022/01/29 11:20:36;;;;;;;;;;;11.50;99.90;;;;;;5077652;28;20219;-72
2022/01/29 11:23:01;;;;;;;;;;;11.60;99.90;;;;;;5077642;28;20007;-73
2022/01/29 11:25:31;;;;;;;;;;;11.40;99.90;;;;;;5077170;28;19919;-74
2022/01/29 11:28:15;;;;;;;;;;;11.40;99.90;;;;;;5076594;28;19917;-73
2022/01/29 11:30:45;;;;;;;;;;;11.30;99.90;;;;;;5069902;28;20306;-74
2022/01/29 11:33:10;;;;;;;;;;;11.20;99.90;;;;;;5076742;28;19912;-75
2022/01/29 11:35:50;;;;;;;;;;;11.30;99.90;;;;;;5076424;28;19912;-73
2022/01/29 11:38:26;;;;;;;;;;;11.40;99.90;;;;;;5077382;28;19913;-74
2022/01/29 11:41:00;;;;;;;;;;;11.50;99.90;;;;;;5061195;28;19927;-74
2022/01/29 11:43:26;;;;;;;;;;;11.40;99.90;;;;;;5045877;28;19914;-73
2022/01/29 11:45:57;;;;;;;;;;;11.30;99.90;;;;;;5049181;28;19917;-73
2022/01/29 11:48:26;;;;;;;;;;;11.20;99.90;;;;;;5039998;28;19916;-74
2022/01/29 11:50:53;;;;;;;;;;;11.20;99.90;;;;;;5038853;28;19919;-73
2022/01/29 11:53:19;;;;;;;;;;;11.30;99.90;;;;;;5045062;28;20024;-74
2022/01/29 11:55:47;;;;;;;;;;;11.50;99.90;;;;;;5045226;28;19987;-74
2022/01/29 11:58:12;;;;;;;;;;;11.50;99.90;;;;;;5044909;28;19913;-75
2022/01/29 12:00:38;;;;;;;;;;;11.50;99.90;;;;;;5027438;28;19962;-74
2022/01/29 12:03:04;;;;;;;;;;;11.40;99.90;;;;;;5047809;28;20011;-75
2022/01/29 12:05:31;;;;;;;;;;;11.50;99.90;;;;;;5048214;28;19917;-74
2022/01/29 12:08:03;;;;;;;;;;;11.50;99.90;;;;;;5049978;28;20062;-75
2022/01/29 12:10:36;;;;;;;;;;;11.50;99.90;;;;;;5045281;28;19917;-75
2022/01/29 12:13:13;;;;;;;;;;;11.70;99.90;;;;;;5039172;28;19932;-76
2022/01/29 12:15:39;;;;;;;;;;;11.70;99.90;;;;;;5049127;28;19925;-74
2022/01/29 12:18:23;;;;;;;;;;;11.70;99.90;;;;;;5017864;28;19920;-75
2022/01/29 12:20:48;;;;;;;;;;;11.70;99.90;;;;;;5035757;28;20224;-73
2022/01/29 12:23:14;;;;;;;;;;;11.50;99.90;;;;;;5033376;28;19920;-75
2022/01/29 12:25:39;;;;;;;;;;;11.40;99.90;;;;;;5049681;28;19924;-75
2022/01/29 12:28:07;;;;;;;;;;;11.40;99.90;;;;;;5031031;28;19917;-75
2022/01/29 12:30:33;;;;;;;;;;;11.40;99.90;;;;;;5032877;28;20000;-75
2022/01/29 12:33:05;;;;;;;;;;;11.30;99.90;;;;;;5047533;28;19924;-74
2022/01/29 12:35:41;;;;;;;;;;;11.20;99.90;;;;;;5047834;28;19944;-75
2022/01/29 12:38:17;;;;;;;;;;;11.20;99.90;;;;;;5046797;28;19932;-74
2022/01/29 12:40:55;;;;;;;;;;;11.10;99.90;;;;;;5063977;28;20271;-73
2022/01/29 12:43:27;;;;;;;;;;;11.10;99.90;;;;;;5064046;28;19927;-74
2022/01/29 12:45:54;;;;;;;;;;;11.20;99.90;;;;;;5069572;28;19920;-74
2022/01/29 12:48:20;;;;;;;;;;;11.30;99.90;;;;;;5089281;28;20019;-73
2022/01/29 12:50:46;;;;;;;;;;;11.30;99.90;;;;;;5067790;28;19999;-75
2022/01/29 12:53:14;;;;;;;;;;;11.30;99.90;;;;;;5068750;28;19921;-75
2022/01/29 12:55:39;;;;;;;;;;;11.30;99.90;;;;;;5088858;28;20224;-75
2022/01/29 12:58:05;;;;;;;;;;;11.30;99.90;;;;;;5068060;28;19920;-76
2022/01/29 13:00:31;;;;;;;;;;;11.20;99.90;;;;;;5075657;28;19913;-74
2022/01/29 13:03:10;;;;;;;;;;;11.20;99.90;;;;;;5072880;28;20258;-74
2022/01/29 13:05:40;;;;;;;;;;;11.20;99.90;;;;;;5065503;28;19912;-74
2022/01/29 13:08:05;;;;;;;;;;;11.20;99.90;;;;;;5075049;28;19917;-74
2022/01/29 13:10:32;;;;;;;;;;;11.20;99.90;;;;;;5064489;28;19920;-75
2022/01/29 13:12:58;;;;;;;;;;;11.30;99.90;;;;;;5067758;28;19927;-76
2022/01/29 13:15:33;;;;;;;;;;;11.20;99.90;;;;;;5070350;28;19920;-74
2022/01/29 13:18:05;;;;;;;;;;;11.20;99.90;;;;;;5070648;28;20251;-79
2022/01/29 13:20:31;;;;;;;;;;;11.20;99.90;;;;;;5059454;28;20082;-74
2022/01/29 13:22:57;;;;;;;;;;;11.10;99.90;;;;;;5068907;28;20015;-74
2022/01/29 13:25:26;;;;;;;;;;;11.10;99.90;;;;;;5068054;28;19931;-76
2022/01/29 13:28:02;;;;;;;;;;;11.10;99.90;;;;;;5068099;28;19940;-73
2022/01/29 13:30:31;;;;;;;;;;;11.10;99.90;;;;;;5068872;28;19989;-74
2022/01/29 13:33:16;;;;;;;;;;;11.00;99.90;;;;;;5092113;28;19927;-74
2022/01/29 13:35:42;;;;;;;;;;;11.00;99.90;;;;;;5066858;28;19912;-76
2022/01/29 13:38:09;;;;;;;;;;;11.00;99.90;;;;;;5072148;28;19928;-75
2022/01/29 13:40:36;;;;;;;;;;;11.00;99.90;;;;;;5071326;28;19931;-74
2022/01/29 13:43:06;;;;;;;;;;;10.90;99.90;;;;;;5067164;28;20239;-74
2022/01/29 13:45:54;;;;;;;;;;;10.90;99.90;;;;;;5063810;28;20262;-76
2022/01/29 13:48:20;;;;;;;;;;;10.90;99.90;;;;;;5065178;28;19944;-75
2022/01/29 13:50:46;;;;;;;;;;;10.80;99.90;;;;;;5065986;28;19916;-74
2022/01/29 13:53:13;;;;;;;;;;;10.80;99.90;;;;;;5066919;28;19919;-73
2022/01/29 13:55:40;;;;;;;;;;;10.70;99.90;;;;;;5065970;28;20334;-74
2022/01/29 13:58:05;;;;;;;;;;;10.70;99.90;;;;;;5065575;28;19994;-75
2022/01/29 14:00:49;;;;;;;;;;;10.60;99.90;;;;;;5069498;28;19956;-75
2022/01/29 14:03:15;;;;;;;;;;;10.60;99.90;;;;;;5067303;28;19924;-77
2022/01/29 14:05:40;;;;;;;;;;;10.60;99.90;;;;;;5065402;28;19913;-75
2022/01/29 14:08:16;;;;;;;;;;;10.60;99.90;;;;;;5066900;28;19921;-76
2022/01/29 14:10:42;;;;;;;;;;;10.60;99.90;;;;;;5068079;28;19912;-74
2022/01/29 14:13:07;;;;;;;;;;;10.60;99.90;;;;;;5064864;28;20350;-75
2022/01/29 14:15:33;;;;;;;;;;;10.70;99.90;;;;;;5066636;28;19923;-74
2022/01/29 14:17:58;;;;;;;;;;;10.80;99.90;;;;;;5066258;28;19932;-77
2022/01/29 14:20:25;;;;;;;;;;;10.80;99.90;;;;;;5057346;28;19912;-74
2022/01/29 14:22:51;;;;;;;;;;;10.90;99.90;;;;;;5065327;28;20188;-75
2022/01/29 14:25:21;;;;;;;;;;;11.00;99.90;;;;;;5058574;28;19918;-73
2022/01/29 14:27:47;;;;;;;;;;;11.00;99.90;;;;;;5064656;28;19916;-76
2022/01/29 14:30:13;;;;;;;;;;;11.00;99.90;;;;;;5087032;28;20277;-76
2022/01/29 14:32:41;;;;;;;;;;;11.00;99.90;;;;;;5064742;28;19921;-75
2022/01/29 14:35:10;;;;;;;;;;;11.00;99.90;;;;;;5066678;28;19912;-75
2022/01/29 14:37:36;;;;;;;;;;;11.00;99.90;;;;;;5064822;28;19989;-84